< Typhoon 196904 1969 Season Typhoon 196906 >
Typhoon 196905 (VIOLA)
General InformationTrack Information on Google Maps || Disaster Info.ResourceGoogle EarthGE AnimationAtom FeedGeoJSON
Detalied Best Track (Time Zone = UTC)
Year Month Day Hour Lat. Long. Pressure (hPa) Wind (kt) Class Image Chart
1969 7 20 12 7.0 149.6 1007 0 2 -- Chart
1969 7 20 18 7.3 148.5 1006 0 2 -- Chart
1969 7 21 00 7.5 147.5 1006 0 2 -- Chart
1969 7 21 06 7.7 146.5 1004 0 2 -- Chart
1969 7 21 12 7.8 145.6 1004 0 2 -- Chart
1969 7 21 18 8.1 144.4 1002 0 2 -- Chart
1969 7 22 00 8.3 143.7 1000 0 2 -- Chart
1969 7 22 06 8.7 142.5 995 0 2 -- Chart
1969 7 22 12 9.5 141.4 990 0 9 -- Chart
1969 7 22 18 10.2 140.7 990 0 9 -- Chart
1969 7 23 00 10.7 139.8 990 0 9 -- Chart
1969 7 23 06 11.9 139.0 990 0 9 -- Chart
1969 7 23 12 12.9 138.0 985 0 9 -- Chart
1969 7 23 18 13.8 136.9 975 0 9 -- Chart
1969 7 24 00 14.9 135.7 960 0 9 -- Chart
1969 7 24 06 15.5 134.0 945 0 9 -- Chart
1969 7 24 12 16.0 132.3 940 0 9 -- Chart
1969 7 24 18 16.2 131.4 930 0 9 -- Chart
1969 7 25 00 16.6 130.0 925 0 9 -- Chart
1969 7 25 06 16.9 128.8 920 0 9 -- Chart
1969 7 25 12 17.1 127.6 910 0 9 -- Chart
1969 7 25 18 17.2 126.9 905 0 9 -- Chart
1969 7 26 00 17.6 126.2 900 0 9 -- Chart
1969 7 26 06 18.5 125.3 900 0 9 -- Chart
1969 7 26 12 19.4 124.1 900 0 9 -- Chart
1969 7 26 18 19.7 123.1 900 0 9 -- Chart
1969 7 27 00 20.0 121.6 900 0 9 -- Chart
1969 7 27 06 20.7 120.3 910 0 9 -- Chart
1969 7 27 12 21.4 119.4 925 0 9 -- Chart
1969 7 27 18 22.0 118.4 940 0 9 -- Chart
1969 7 28 00 22.5 117.2 950 0 9 -- Chart
1969 7 28 06 23.1 115.8 965 0 9 -- Chart
1969 7 28 12 23.5 114.1 980 0 9 -- Chart
1969 7 28 18 23.8 112.5 984 0 9 -- Chart
1969 7 29 00 24.5 112.0 986 0 9 -- Chart
1969 7 29 06 25.0 111.0 986 0 9 -- Chart
1969 7 29 12 25.0 110.1 988 0 9 -- Chart
1969 7 29 18 25.0 109.1 990 0 2 -- Chart
1969 7 30 00 24.8 107.4 990 0 2 -- Chart
1969 7 30 06 24.6 107.0 992 0 2 -- Chart
1969 7 30 12 24.5 106.5 994 0 2 -- Chart
1969 7 30 18 24.4 105.7 994 0 2 -- Chart
1969 7 31 00 24.2 105.1 998 0 6 -- Chart
Japan Meteorological Agency Best Track Data | Correction Date : 2013-03-19
< Typhoon 196904 1969 Season Typhoon 196906 >

Help